ADDS METAR Data INFO
IDs: Format: Raw Decoded Include TAF

Data at: 2145 UTC 15 Dec 2017

KMNM 151956Z AUTO 27008KT 10SM BKN033 M05/M12 A2978 RMK AO2 SLP107 T10501122 FZRANO $
KMNM 151856Z AUTO 29007G15KT 10SM BKN031 BKN050 M04/M12 A2979 RMK AO2 SLP108 T10391117 FZRANO $
KMNM 151756Z AUTO 29006KT 10SM OVC050 M04/M11 A2979 RMK AO2 SLP111 60000 T10441111 11044 21094 58005 FZRANO $
KMNM 151656Z AUTO 29006KT 10SM BKN050 M06/M12 A2980 RMK AO2 SLP112 T10611117 FZRANO $
KMNM 151556Z AUTO 31007KT 270V340 10SM OVC065 M08/M13 A2981 RMK AO2 SLP115 T10831128 FZRANO $
KMNM 151456Z AUTO VRB06KT 10SM OVC055 M09/M13 A2981 RMK AO2 SLP115 60000 T10941128 53002 FZRANO $
KMNM 151356Z AUTO 28007KT 10SM OVC050 M09/M12 A2980 RMK AO2 SLP113 T10941122 FZRANO $
KMNM 151256Z AUTO 29006KT 10SM OVC050 M09/M12 A2980 RMK AO2 SNE16 SLP114 P0000 T10891117 FZRANO TSNO $
KMNM 151156Z AUTO 29005KT 7SM -SN SCT033 OVC042 M08/M10 A2980 RMK AO2 SLP113 P0000 60000 T10831100 11067 21083 56008 FZRANO $
KMNM 151056Z AUTO 26004KT 7SM -SN BKN039 BKN050 OVC070 M08/M09 A2980 RMK AO2 SLP112 P0000 T10781094 FZRANO $
KMNM 151022Z AUTO VRB04KT 3SM -SN BR FEW024 BKN050 OVC065 M07/M09 A2981 RMK AO2 P0000 FZRANO $
KMNM 150956Z AUTO 27005KT 2SM -SN BR SCT024 BKN032 OVC045 M07/M09 A2981 RMK AO2 SLP116 P0000 T10721089 FZRANO $
KMNM 150948Z AUTO 27005KT 2 1/2SM -SN BR BKN033 OVC045 M07/M09 A2982 RMK AO2 P0000 FZRANO $
KMNM 150856Z AUTO VRB06KT 4SM -SN BR FEW021 BKN049 OVC060 M07/M08 A2983 RMK AO2 SLP120 P0000 60000 T10671083 56009 FZRANO $
KMNM 150853Z AUTO 27005KT 3SM -SN BR FEW023 OVC049 M07/M08 A2983 RMK AO2 P0000 FZRANO $
KMNM 150844Z AUTO 26004KT 2 1/2SM -SN BR FEW021 SCT027 OVC049 M07/M08 A2983 RMK AO2 P0000 FZRANO $
KMNM 150830Z AUTO 26004KT 2 1/2SM -SN BR BKN024 BKN032 OVC047 M07/M08 A2983 RMK AO2 P0000 FZRANO $
KMNM 150756Z AUTO 25005KT 4SM -SN BR BKN033 OVC047 M07/M08 A2984 RMK AO2 SLP127 P0000 T10671078 FZRANO $
KMNM 150716Z AUTO 24007KT 3SM -SN BR FEW017 SCT026 OVC037 M07/M08 A2985 RMK AO2 P0000 FZRANO $
KMNM 150704Z AUTO 24004KT 2SM -SN BR FEW013 BKN028 OVC037 M07/M08 A2985 RMK AO2 P0000 FZRANO $
KMNM 150640Z AUTO VRB04KT 2 1/2SM -SN BR FEW014 BKN024 OVC037 M07/M08 A2986 RMK AO2 P0000 FZRANO $
KMNM 150556Z AUTO 23008KT 4SM -SN BR FEW024 BKN034 OVC042 M07/M08 A2988 RMK AO2 SLP140 P0000 60000 T10671083 11067 21072 58025 FZRANO $
KMNM 150548Z AUTO 23007KT 3SM -SN BR SCT026 OVC034 M07/M08 A2988 RMK AO2 P0000 FZRANO $
KMNM 150526Z AUTO 24006KT 4SM -SN BR BKN028 OVC035 M07/M08 A2990 RMK AO2 P0000 FZRANO $
KMNM 150456Z AUTO 23006KT 9SM -SN FEW036 OVC047 M07/M09 A2992 RMK AO2 SNE0359B19 SLP151 P0000 T10671089 410391194 FZRANO $
KMNM 150356Z AUTO 24004KT 9SM -SN BKN040 OVC070 M07/M09 A2994 RMK AO2 SLP160 P0000 T10671089 FZRANO $
KMNM 150256Z AUTO 23004KT 9SM -SN OVC070 M07/M09 A2995 RMK AO2 SLP165 P0000 60000 T10721089 58014 FZRANO $
KMNM 150156Z AUTO 23003KT 9SM -SN FEW022 OVC036 M07/M10 A2998 RMK AO2 SNB27 SLP175 P0000 T10721100 FZRANO $
KMNM 150056Z AUTO 22003KT 10SM OVC030 M07/M11 A2999 RMK AO2 SLP178 T10671106 FZRANO $
KMNM 142356Z AUTO 00000KT 10SM OVC030 M07/M11 A3000 RMK AO2 SNE01 SLP181 P0000 60000 T10671106 11039 21067 51004 FZRANO $
KMNM 142326Z AUTO 25003KT 10SM OVC030 M06/M10 A2999 RMK AO2 SNE01 P0000 FZRANO $
KMNM 142256Z AUTO VRB04KT 9SM -SN OVC026 M06/M10 A3000 RMK AO2 SLP180 P0000 T10611100 FZRANO $
KMNM 142156Z AUTO VRB03KT 9SM -SN OVC028 M06/M11 A2999 RMK AO2 SNB16 SLP179 P0000 T10611106 FZRANO $
KMNM 142112Z AUTO 24003KT 10SM BKN028 M06/M11 A2998 RMK AO2 FZRANO $
KMNM 141956Z AUTO VRB05KT 10SM CLR M04/M11 A2999 RMK AO2 SLP180 T10441111 FZRANO $
KMNM 141856Z AUTO 30004KT 10SM CLR M05/M12 A3000 RMK AO2 SNE01 SLP179 P0000 T10501117 FZRANO $
KMNM 141805Z AUTO 29005KT 9SM SCT024 M04/M11 A3001 RMK AO2 SNE01 P0000 FZRANO $
KMNM 141756Z AUTO VRB03KT 9SM -SN BKN024 M04/M11 A3001 RMK AO2 SNB41 SLP184 P0000 60000 T10441106 11044 21194 58006 FZRANO $
KMNM 141656Z AUTO 25004KT 10SM CLR M07/M10 A3003 RMK AO2 SNB04E14 SLP191 P0000 T10671100 FZRANO $
KMNM 141556Z AUTO 26004KT 10SM CLR M10/M12 A3004 RMK AO2 SLP196 T11001117 FZRANO $
KMNM 141456Z AUTO 29004KT 10SM CLR M14/M16 A3003 RMK AO2 SLP191 T11441161 51019 FZRANO $
KMNM 141356Z AUTO 29003KT 10SM CLR M16/M18 A3001 RMK AO2 SLP185 T11611178 FZRANO $
KMNM 141256Z AUTO 33004KT 10SM CLR M19/M21 A2999 RMK AO2 SLP178 T11891206 FZRANO $
KMNM 141156Z AUTO 33003KT 9SM CLR M18/M21 A2997 RMK AO2 SLP172 70003 T11831206 11139 21183 51014 FZRANO $
KMNM 141056Z AUTO 30003KT 10SM CLR M18/M19 A2997 RMK AO2 SLP172 T11781194 FZRANO $
KMNM 140956Z AUTO 00000KT 10SM FEW023 SCT028 M17/M18 A2994 RMK AO2 SLP160 T11671183 FZRANO $